Time;durP1;ratioP1;P1;durP2;ratioP2;P2;SDS_P1;SDS_P2;PMS_P1;PMS_P2;Temp;Humidity;BMP_temperature;BMP_pressure;BME280_temperature;BME280_humidity;BME280_pressure;Samples;Min_cycle;Max_cycle;Signal;HPM_P1;HPM_P2
2022/12/24 00:00:15;;;;;;;13.67;2.77;;;12.00;99.90;;;;;;5007605;28;20445;-74
2022/12/24 00:03:02;;;;;;;11.90;2.90;;;12.00;99.90;;;;;;5012811;28;20541;-75
2022/12/24 00:05:48;;;;;;;10.03;3.17;;;11.90;99.90;;;;;;5017888;28;20550;-73
2022/12/24 00:08:34;;;;;;;15.00;2.83;;;11.90;99.90;;;;;;5007837;28;20440;-73
2022/12/24 00:11:20;;;;;;;10.53;2.30;;;11.90;99.90;;;;;;5002850;28;20461;-74
2022/12/24 00:14:06;;;;;;;13.70;2.20;;;11.90;99.90;;;;;;5010662;28;20480;-72
2022/12/24 00:16:51;;;;;;;10.73;3.00;;;11.80;99.90;;;;;;5014490;28;20859;-74
2022/12/24 00:19:38;;;;;;;11.67;2.83;;;11.80;99.90;;;;;;5008265;28;20461;-73
2022/12/24 00:22:24;;;;;;;17.90;3.17;;;11.80;99.90;;;;;;5008440;28;20605;-73
2022/12/24 00:25:10;;;;;;;9.53;2.53;;;11.80;99.90;;;;;;5011355;28;20429;-74
2022/12/24 00:27:56;;;;;;;5.90;2.43;;;11.80;99.90;;;;;;5012636;28;21086;-74
2022/12/24 00:30:42;;;;;;;17.20;3.70;;;11.60;99.90;;;;;;5007333;28;20453;-74
2022/12/24 00:33:28;;;;;;;17.57;3.93;;;11.50;99.90;;;;;;5013426;28;20478;-74
2022/12/24 00:36:16;;;;;;;7.77;2.83;;;11.40;99.90;;;;;;5011170;28;20468;-74
2022/12/24 00:39:01;;;;;;;12.50;2.70;;;11.30;99.90;;;;;;5005122;28;20551;-74
2022/12/24 00:41:47;;;;;;;19.70;4.17;;;11.30;99.90;;;;;;5005836;28;20442;-74
2022/12/24 00:44:33;;;;;;;10.17;3.00;;;11.30;99.90;;;;;;5015196;28;20584;-72
2022/12/24 00:47:18;;;;;;;18.30;2.50;;;11.40;99.90;;;;;;5008972;28;20489;-74
2022/12/24 00:50:05;;;;;;;12.73;3.00;;;11.50;99.90;;;;;;5008780;28;20461;-74
2022/12/24 00:52:52;;;;;;;13.40;3.17;;;11.60;99.90;;;;;;5008164;28;20477;-74
2022/12/24 00:55:37;;;;;;;11.07;2.80;;;11.60;99.90;;;;;;5008600;28;20620;-73
2022/12/24 00:58:23;;;;;;;7.80;2.40;;;11.70;99.90;;;;;;5009993;28;21028;-74
2022/12/24 01:01:09;;;;;;;12.43;2.70;;;11.80;99.90;;;;;;5005901;28;20955;-74
2022/12/24 01:05:09;;;;;;;9.17;2.33;;;11.80;99.90;;;;;;5009611;28;20531;-74
2022/12/24 01:07:00;;;;;;;13.13;2.70;;;11.80;99.90;;;;;;5010997;28;20998;-74
2022/12/24 01:09:46;;;;;;;12.33;2.40;;;11.70;99.90;;;;;;5005990;28;20437;-73
2022/12/24 01:12:32;;;;;;;9.53;2.23;;;11.60;99.90;;;;;;5008756;28;20477;-74
2022/12/24 01:15:18;;;;;;;10.13;2.90;;;11.50;99.90;;;;;;5012417;28;20604;-74
2022/12/24 01:18:03;;;;;;;7.80;2.67;;;11.50;99.90;;;;;;5010268;28;20440;-73
2022/12/24 01:20:56;;;;;;;11.80;2.57;;;11.50;99.90;;;;;;5008329;28;20488;-74
2022/12/24 01:23:42;;;;;;;11.37;2.90;;;11.60;99.90;;;;;;5015362;28;20834;-73
2022/12/24 01:26:29;;;;;;;10.63;2.17;;;11.60;99.90;;;;;;5017228;28;20472;-74
2022/12/24 01:29:15;;;;;;;13.13;2.90;;;11.60;99.90;;;;;;5010974;28;20496;-73
2022/12/24 01:32:01;;;;;;;9.10;2.10;;;11.60;99.90;;;;;;5013206;28;21001;-74
2022/12/24 01:34:46;;;;;;;12.77;2.50;;;11.70;99.90;;;;;;5020812;28;20434;-74
2022/12/24 01:37:32;;;;;;;8.10;2.03;;;11.80;99.90;;;;;;5018437;28;20421;-73
2022/12/24 01:43:23;;;;;;;13.43;2.77;;;11.70;99.90;;;;;;5016106;28;20435;-72
2022/12/24 01:46:15;;;;;;;19.23;4.03;;;11.70;99.90;;;;;;5013689;28;20473;-73
2022/12/24 01:49:05;;;;;;;12.40;3.70;;;11.70;99.90;;;;;;5003720;28;20441;-72
2022/12/24 01:51:54;;;;;;;11.23;2.30;;;11.70;99.90;;;;;;5013087;28;20589;-73
2022/12/24 01:54:44;;;;;;;10.37;2.77;;;11.80;99.90;;;;;;5017650;28;20447;-74
2022/12/24 01:57:34;;;;;;;8.20;2.20;;;11.70;99.90;;;;;;5012487;28;20441;-73
2022/12/24 02:00:22;;;;;;;11.20;2.60;;;11.70;99.90;;;;;;5013691;28;20460;-71
2022/12/24 02:03:08;;;;;;;13.50;3.17;;;11.60;99.90;;;;;;5008847;28;20437;-72
2022/12/24 02:05:55;;;;;;;7.07;2.47;;;11.60;99.90;;;;;;5021532;28;20828;-72
2022/12/24 02:08:41;;;;;;;11.30;2.50;;;11.30;99.90;;;;;;5008689;28;20977;-72
2022/12/24 02:11:26;;;;;;;15.30;2.60;;;11.20;99.90;;;;;;5020580;28;20451;-72
2022/12/24 02:14:14;;;;;;;14.47;3.20;;;11.20;99.90;;;;;;5009805;28;20949;-72
2022/12/24 02:17:09;;;;;;;15.67;3.03;;;11.10;99.90;;;;;;5012427;28;20826;-73
2022/12/24 02:20:30;;;;;;;25.60;3.30;;;11.10;99.90;;;;;;5010550;28;20454;-71
2022/12/24 02:23:45;;;;;;;13.10;2.90;;;11.10;99.90;;;;;;5009136;28;20446;-72
2022/12/24 02:26:52;;;;;;;11.40;2.13;;;11.20;99.90;;;;;;5012598;28;20461;-72
2022/12/24 02:29:56;;;;;;;13.33;2.87;;;11.10;99.90;;;;;;5019269;28;20437;-71
2022/12/24 02:33:00;;;;;;;15.23;3.53;;;11.00;99.90;;;;;;5014679;28;20475;-71
2022/12/24 02:35:52;;;;;;;12.17;2.87;;;11.10;99.90;;;;;;5015020;28;21070;-73
2022/12/24 02:38:41;;;;;;;7.70;2.37;;;11.20;99.90;;;;;;5005776;28;20448;-72
2022/12/24 02:42:04;;;;;;;13.43;3.00;;;11.20;99.90;;;;;;5007676;28;20805;-72
2022/12/24 02:44:43;;;;;;;17.10;3.30;;;11.30;99.90;;;;;;5010678;28;20532;-71
2022/12/24 02:47:31;;;;;;;12.97;2.17;;;11.40;99.90;;;;;;5009510;28;20476;-72
2022/12/24 02:50:17;;;;;;;17.73;2.70;;;11.40;99.90;;;;;;5018706;28;20521;-72
2022/12/24 02:53:03;;;;;;;8.87;2.90;;;11.40;99.90;;;;;;5009475;28;20477;-73
2022/12/24 02:55:58;;;;;;;14.27;2.40;;;11.40;99.90;;;;;;5020200;28;20465;-72
2022/12/24 02:58:57;;;;;;;12.60;2.27;;;11.40;99.90;;;;;;5008272;28;20496;-71
2022/12/24 03:01:50;;;;;;;15.40;3.00;;;11.30;99.90;;;;;;5013084;28;21034;-72
2022/12/24 03:04:48;;;;;;;9.40;2.50;;;11.20;99.90;;;;;;5013629;28;20437;-72
2022/12/24 03:07:40;;;;;;;8.90;1.87;;;11.20;99.90;;;;;;5008308;28;20543;-72
2022/12/24 03:10:34;;;;;;;10.23;2.63;;;11.30;99.90;;;;;;5023699;28;20428;-72
2022/12/24 03:13:21;;;;;;;7.13;2.50;;;11.30;99.90;;;;;;5016983;28;20551;-72
2022/12/24 03:16:09;;;;;;;12.00;2.80;;;11.30;99.90;;;;;;5011243;28;20591;-73
2022/12/24 03:18:57;;;;;;;13.00;3.33;;;11.30;99.90;;;;;;5011437;28;20433;-71
2022/12/24 03:21:45;;;;;;;11.00;2.90;;;11.40;99.90;;;;;;5014641;28;20490;-71
2022/12/24 03:24:31;;;;;;;13.97;2.97;;;11.50;99.90;;;;;;5020393;28;20445;-71
2022/12/24 03:27:17;;;;;;;12.53;2.60;;;11.50;99.90;;;;;;5008776;28;21006;-71
2022/12/24 03:30:08;;;;;;;13.70;3.17;;;11.60;99.90;;;;;;5006173;28;20449;-71
2022/12/24 03:32:53;;;;;;;10.73;2.57;;;11.60;99.90;;;;;;5006955;28;21010;-71
2022/12/24 03:35:40;;;;;;;14.53;2.83;;;11.50;99.90;;;;;;5009693;28;20476;-71
2022/12/24 03:38:27;;;;;;;18.00;3.30;;;11.60;99.90;;;;;;5009895;28;20454;-71
2022/12/24 03:41:12;;;;;;;17.77;3.30;;;11.60;99.90;;;;;;5014082;28;20754;-71
2022/12/24 03:43:58;;;;;;;9.50;3.50;;;11.60;99.90;;;;;;5019395;28;20450;-71
2022/12/24 03:46:43;;;;;;;19.53;3.70;;;11.60;99.90;;;;;;5004725;28;20585;-71
2022/12/24 03:49:29;;;;;;;14.47;2.60;;;11.60;99.90;;;;;;5015027;28;20523;-71
2022/12/24 03:52:15;;;;;;;11.80;2.57;;;11.60;99.90;;;;;;5012223;28;20433;-71
2022/12/24 03:55:02;;;;;;;17.50;3.03;;;11.60;99.90;;;;;;5009668;28;20453;-71
2022/12/24 03:57:47;;;;;;;16.77;2.70;;;11.60;99.90;;;;;;5005421;28;20794;-72
2022/12/24 04:00:33;;;;;;;14.10;2.63;;;11.60;99.90;;;;;;5007483;28;20425;-72
2022/12/24 04:03:19;;;;;;;18.20;2.60;;;11.60;99.90;;;;;;5007908;28;20524;-71
2022/12/24 04:06:08;;;;;;;14.33;3.00;;;11.50;99.90;;;;;;5008202;28;20488;-72
2022/12/24 04:08:53;;;;;;;13.17;2.70;;;11.50;99.90;;;;;;5009894;28;20545;-72
2022/12/24 04:11:41;;;;;;;11.03;2.50;;;11.50;99.90;;;;;;5011167;28;20464;-72
2022/12/24 04:14:26;;;;;;;14.57;3.57;;;11.60;99.90;;;;;;5016601;28;20487;-71
2022/12/24 04:17:12;;;;;;;12.67;2.97;;;11.60;99.90;;;;;;5007266;28;21053;-72
2022/12/24 04:19:58;;;;;;;15.23;2.80;;;11.60;99.90;;;;;;5016376;28;20438;-72
2022/12/24 04:22:43;;;;;;;11.03;2.77;;;11.60;99.90;;;;;;5010665;28;20441;-71
2022/12/24 04:25:29;;;;;;;15.93;3.00;;;11.50;99.90;;;;;;5003291;28;20461;-71
2022/12/24 04:28:17;;;;;;;13.70;2.97;;;11.50;99.90;;;;;;5011080;28;20445;-72
2022/12/24 04:31:05;;;;;;;13.90;3.03;;;11.50;99.90;;;;;;5015048;28;20897;-72
2022/12/24 04:33:52;;;;;;;16.13;3.10;;;11.40;99.90;;;;;;5017092;28;20479;-72
2022/12/24 04:36:38;;;;;;;12.57;2.83;;;11.40;99.90;;;;;;5012013;28;20477;-72
2022/12/24 04:39:24;;;;;;;17.17;3.23;;;11.40;99.90;;;;;;5007354;28;20508;-73
2022/12/24 04:42:09;;;;;;;16.47;3.43;;;11.40;99.90;;;;;;5010297;28;20464;-72
2022/12/24 04:44:57;;;;;;;14.47;2.60;;;11.40;99.90;;;;;;5014125;28;20959;-72
2022/12/24 04:47:42;;;;;;;12.33;2.93;;;11.40;99.90;;;;;;5010395;28;20453;-72
2022/12/24 04:50:28;;;;;;;12.90;2.90;;;11.40;99.90;;;;;;5015749;28;20461;-72
2022/12/24 04:53:14;;;;;;;16.43;2.93;;;11.40;99.90;;;;;;5010586;28;20569;-72
2022/12/24 04:55:59;;;;;;;17.93;2.10;;;11.40;99.90;;;;;;5006469;28;20939;-72
2022/12/24 04:58:45;;;;;;;13.17;2.60;;;11.40;99.90;;;;;;5015026;28;20448;-72
2022/12/24 05:01:33;;;;;;;13.70;2.60;;;11.50;99.90;;;;;;5011275;28;20528;-72
2022/12/24 05:04:18;;;;;;;11.27;4.03;;;11.50;99.90;;;;;;5016460;28;20465;-72
2022/12/24 05:07:04;;;;;;;18.07;3.20;;;11.50;99.90;;;;;;5007721;28;20465;-72
2022/12/24 05:09:50;;;;;;;6.87;2.83;;;11.50;99.90;;;;;;5015405;28;20456;-72
2022/12/24 05:12:36;;;;;;;16.60;3.40;;;11.50;99.90;;;;;;5013316;28;21050;-72
2022/12/24 05:15:22;;;;;;;14.77;3.00;;;11.50;99.90;;;;;;5010325;28;20472;-72
2022/12/24 05:18:09;;;;;;;21.03;3.77;;;11.50;99.90;;;;;;5013943;28;20448;-72
2022/12/24 05:20:54;;;;;;;19.60;3.00;;;11.50;99.90;;;;;;5011590;28;20449;-72
2022/12/24 05:26:46;;;;;;;13.27;2.97;;;11.50;99.90;;;;;;5005427;28;20443;-72
2022/12/24 05:29:31;;;;;;;12.13;2.70;;;11.50;99.90;;;;;;5016444;28;20445;-73
2022/12/24 05:32:17;;;;;;;25.63;3.77;;;11.50;99.90;;;;;;5014390;28;20904;-72
2022/12/24 05:35:05;;;;;;;21.90;4.43;;;11.60;99.90;;;;;;5011060;28;20556;-72
2022/12/24 05:37:50;;;;;;;11.70;3.00;;;11.60;99.90;;;;;;5008780;28;20448;-72
2022/12/24 05:40:36;;;;;;;14.43;3.40;;;11.60;99.90;;;;;;5009373;28;20433;-73
2022/12/24 05:43:22;;;;;;;12.40;3.10;;;11.60;99.90;;;;;;5013202;28;20441;-72
2022/12/24 05:46:11;;;;;;;17.97;3.63;;;11.50;99.90;;;;;;5001641;28;20469;-72
2022/12/24 05:48:57;;;;;;;20.20;3.70;;;11.50;99.90;;;;;;5016362;28;20441;-72
2022/12/24 05:51:44;;;;;;;14.13;3.13;;;11.50;99.90;;;;;;5011672;28;20485;-72
2022/12/24 05:54:30;;;;;;;31.73;8.73;;;11.40;99.90;;;;;;5003968;28;20465;-72
2022/12/24 05:57:16;;;;;;;9.97;3.20;;;11.40;99.90;;;;;;5007917;28;20819;-72
2022/12/24 06:00:02;;;;;;;18.97;4.40;;;11.30;99.90;;;;;;5018463;28;20438;-72
2022/12/24 06:02:48;;;;;;;17.20;3.73;;;11.30;99.90;;;;;;5010649;28;20986;-72
2022/12/24 06:05:33;;;;;;;20.37;3.07;;;11.30;99.90;;;;;;5004963;28;20576;-72
2022/12/24 06:08:20;;;;;;;17.47;3.80;;;11.30;99.90;;;;;;5009077;28;20426;-72
2022/12/24 06:11:08;;;;;;;20.77;3.87;;;11.30;99.90;;;;;;5020757;28;20491;-72
2022/12/24 06:13:54;;;;;;;22.57;3.57;;;11.30;99.90;;;;;;5007954;28;20472;-73
2022/12/24 06:16:39;;;;;;;20.47;4.03;;;11.30;99.90;;;;;;5018650;28;20520;-72
2022/12/24 06:19:25;;;;;;;18.97;4.17;;;11.30;99.90;;;;;;5019352;28;20433;-72
2022/12/24 06:22:10;;;;;;;20.60;3.60;;;11.30;99.90;;;;;;5012960;28;20460;-72
2022/12/24 06:24:58;;;;;;;33.50;5.53;;;11.30;99.90;;;;;;5006730;28;20441;-72
2022/12/24 06:27:43;;;;;;;15.37;4.40;;;11.30;99.90;;;;;;5019221;28;20475;-72
2022/12/24 06:30:29;;;;;;;26.20;5.27;;;11.20;99.90;;;;;;5015134;28;20877;-72
2022/12/24 06:33:15;;;;;;;18.90;4.33;;;11.30;99.90;;;;;;5017609;28;20967;-72
2022/12/24 06:36:00;;;;;;;17.33;3.30;;;11.30;99.90;;;;;;5018530;28;20465;-72
2022/12/24 06:38:47;;;;;;;22.00;4.73;;;11.30;99.90;;;;;;5015658;28;20461;-72
2022/12/24 06:41:34;;;;;;;22.70;4.30;;;11.40;99.90;;;;;;5021070;28;20431;-71
2022/12/24 06:44:19;;;;;;;23.43;5.83;;;11.40;99.90;;;;;;5010259;28;20596;-71
2022/12/24 06:47:05;;;;;;;19.20;5.00;;;11.50;99.90;;;;;;5014531;28;20800;-72
2022/12/24 06:49:50;;;;;;;26.87;5.47;;;11.50;99.90;;;;;;5021033;28;20824;-72
2022/12/24 06:52:36;;;;;;;17.87;4.97;;;11.50;99.90;;;;;;5014820;28;20425;-72
2022/12/24 06:55:22;;;;;;;11.53;4.20;;;11.40;99.90;;;;;;5004730;28;20548;-71
2022/12/24 06:58:09;;;;;;;22.83;5.27;;;11.40;99.90;;;;;;5022080;28;20435;-71
2022/12/24 07:00:55;;;;;;;21.57;4.77;;;11.30;99.90;;;;;;5011297;28;20429;-72
2022/12/24 07:03:41;;;;;;;19.07;4.40;;;11.30;99.90;;;;;;5008867;28;20552;-72
2022/12/24 07:06:29;;;;;;;25.40;5.00;;;11.30;99.90;;;;;;5015257;28;20477;-72
2022/12/24 07:09:14;;;;;;;16.97;4.67;;;11.40;99.90;;;;;;5013683;28;20973;-71
2022/12/24 07:12:00;;;;;;;17.50;5.60;;;11.40;99.90;;;;;;5018006;28;20501;-71
2022/12/24 07:14:47;;;;;;;22.87;5.27;;;11.40;99.90;;;;;;5007120;28;20461;-72
2022/12/24 07:17:33;;;;;;;22.20;5.60;;;11.40;99.90;;;;;;5020234;28;20424;-71
2022/12/24 07:20:19;;;;;;;25.83;6.83;;;11.50;99.90;;;;;;5012706;28;20458;-71
2022/12/24 07:23:05;;;;;;;20.50;5.10;;;11.50;99.90;;;;;;4997773;28;20529;-71
2022/12/24 07:25:50;;;;;;;19.77;4.60;;;11.40;99.90;;;;;;5015850;28;20444;-71
2022/12/24 07:28:36;;;;;;;29.47;5.97;;;11.50;99.90;;;;;;5007729;28;20802;-71
2022/12/24 07:31:23;;;;;;;18.53;4.83;;;11.50;99.90;;;;;;5008357;28;20425;-72
2022/12/24 07:34:09;;;;;;;20.27;4.17;;;11.50;99.90;;;;;;5007926;28;21043;-71
2022/12/24 07:36:55;;;;;;;23.60;4.87;;;11.50;99.90;;;;;;5007702;28;20476;-73
2022/12/24 07:39:41;;;;;;;22.90;5.93;;;11.50;99.90;;;;;;5017462;28;20511;-71
2022/12/24 07:42:26;;;;;;;27.07;4.90;;;11.60;99.90;;;;;;5009544;28;20487;-71
2022/12/24 07:45:12;;;;;;;21.70;4.80;;;11.50;99.90;;;;;;5012789;28;20557;-72
2022/12/24 07:48:00;;;;;;;15.43;3.90;;;11.50;99.90;;;;;;5015458;28;20450;-72
2022/12/24 07:50:48;;;;;;;18.47;4.37;;;11.50;99.90;;;;;;5013906;28;20450;-72
2022/12/24 07:53:34;;;;;;;15.47;4.43;;;11.50;99.90;;;;;;5005514;28;20449;-71
2022/12/24 07:56:19;;;;;;;23.73;5.77;;;11.50;99.90;;;;;;4977926;28;1114796;-71
2022/12/24 07:59:05;;;;;;;19.17;3.93;;;11.50;99.90;;;;;;5018432;28;20943;-72
2022/12/24 08:01:51;;;;;;;20.17;3.80;;;11.50;99.90;;;;;;5010306;28;20464;-73
2022/12/24 08:04:38;;;;;;;29.67;4.97;;;11.40;99.90;;;;;;5002780;28;20930;-71
2022/12/24 08:07:24;;;;;;;18.20;4.87;;;11.40;99.90;;;;;;5013079;28;20796;-71
2022/12/24 08:10:10;;;;;;;26.80;4.60;;;11.50;99.90;;;;;;5016276;28;20791;-72
2022/12/24 08:12:55;;;;;;;23.63;5.17;;;11.50;99.90;;;;;;5004572;28;20445;-73
2022/12/24 08:15:41;;;;;;;25.03;4.60;;;11.40;99.90;;;;;;5005146;28;20488;-71
2022/12/24 08:18:27;;;;;;;21.27;4.50;;;11.40;99.90;;;;;;5018917;28;20808;-73
2022/12/24 08:21:14;;;;;;;18.20;4.27;;;11.40;99.90;;;;;;5009540;28;20456;-73
2022/12/24 08:23:59;;;;;;;13.53;3.60;;;11.40;99.90;;;;;;5016703;28;20421;-71
2022/12/24 08:26:45;;;;;;;23.37;5.73;;;11.40;99.90;;;;;;5011360;28;20451;-71
2022/12/24 08:29:30;;;;;;;20.30;4.87;;;11.50;99.90;;;;;;5015880;28;20425;-71
2022/12/24 08:32:16;;;;;;;22.43;5.07;;;11.50;99.90;;;;;;5005614;28;20453;-72
2022/12/24 08:35:01;;;;;;;24.53;4.47;;;11.50;99.90;;;;;;5008006;28;20461;-71
2022/12/24 08:37:48;;;;;;;15.17;3.57;;;11.50;99.90;;;;;;5019718;28;20436;-72
2022/12/24 08:40:34;;;;;;;16.00;3.17;;;11.50;99.90;;;;;;5009011;28;20421;-72
2022/12/24 08:43:20;;;;;;;23.50;4.00;;;11.50;99.90;;;;;;5008979;28;20584;-73
2022/12/24 08:46:06;;;;;;;25.43;6.60;;;11.60;99.90;;;;;;5009014;28;20448;-72
2022/12/24 08:48:52;;;;;;;25.00;5.53;;;11.60;99.90;;;;;;5016621;28;20458;-72
2022/12/24 08:51:38;;;;;;;28.73;5.13;;;11.60;99.90;;;;;;5005085;28;20967;-72
2022/12/24 08:54:26;;;;;;;22.20;6.00;;;11.50;99.90;;;;;;5008228;28;20524;-73
2022/12/24 08:57:12;;;;;;;27.17;5.77;;;11.60;99.90;;;;;;5020178;28;20453;-72
2022/12/24 08:59:57;;;;;;;22.07;5.77;;;11.60;99.90;;;;;;5008113;28;20584;-71
2022/12/24 09:02:43;;;;;;;27.43;6.20;;;11.60;99.90;;;;;;5008605;28;20966;-71
2022/12/24 09:05:29;;;;;;;36.63;12.70;;;11.60;99.90;;;;;;5014368;28;20473;-72
2022/12/24 09:08:14;;;;;;;26.40;7.10;;;11.70;99.90;;;;;;5012130;28;20433;-71
2022/12/24 09:11:05;;;;;;;19.90;4.37;;;11.70;99.90;;;;;;5009773;28;20558;-72
2022/12/24 09:13:51;;;;;;;28.20;6.70;;;11.80;99.90;;;;;;5014772;28;20420;-71
2022/12/24 09:16:37;;;;;;;28.47;6.00;;;11.90;99.90;;;;;;5014497;28;20473;-70
2022/12/24 09:19:23;;;;;;;19.93;4.80;;;11.90;99.90;;;;;;5018808;28;20560;-72
2022/12/24 09:22:08;;;;;;;24.27;5.20;;;12.00;99.90;;;;;;5003159;28;20444;-71
2022/12/24 09:24:54;;;;;;;16.87;6.10;;;12.00;99.90;;;;;;5003972;28;20463;-72
2022/12/24 09:27:41;;;;;;;21.33;4.27;;;12.10;99.90;;;;;;5011153;28;20430;-73
2022/12/24 09:30:26;;;;;;;22.33;4.40;;;12.20;99.90;;;;;;5006561;28;20945;-72
2022/12/24 09:33:12;;;;;;;17.27;3.60;;;12.30;99.90;;;;;;5018660;28;20429;-72
2022/12/24 09:35:58;;;;;;;31.47;6.90;;;12.20;99.90;;;;;;5004364;28;20695;-72
2022/12/24 09:38:43;;;;;;;21.80;4.63;;;12.30;99.90;;;;;;5020315;28;20436;-73
2022/12/24 09:41:41;;;;;;;15.90;3.70;;;12.20;99.90;;;;;;5008426;28;20683;-71
2022/12/24 09:44:41;;;;;;;25.50;5.80;;;12.20;99.90;;;;;;5016303;28;20504;-72
2022/12/24 09:47:33;;;;;;;19.50;4.70;;;12.10;99.90;;;;;;5005685;28;20429;-72
2022/12/24 09:50:29;;;;;;;25.20;5.57;;;12.20;99.90;;;;;;5015118;28;20574;-72
2022/12/24 09:53:21;;;;;;;23.83;5.57;;;12.10;99.90;;;;;;5017048;28;20559;-72
2022/12/24 09:56:12;;;;;;;25.47;5.20;;;12.00;99.90;;;;;;5016215;28;20476;-71
2022/12/24 09:59:00;;;;;;;20.43;5.40;;;12.10;99.90;;;;;;5009832;28;20798;-71
2022/12/24 10:01:50;;;;;;;23.43;5.07;;;12.10;99.90;;;;;;5008134;28;20486;-71
2022/12/24 10:04:36;;;;;;;32.00;6.43;;;12.00;99.90;;;;;;5011378;28;20500;-71
2022/12/24 10:07:34;;;;;;;30.87;5.33;;;12.00;99.90;;;;;;5010232;28;20973;-72
2022/12/24 10:10:26;;;;;;;25.63;4.50;;;12.00;99.90;;;;;;5007946;28;21150;-73
2022/12/24 10:13:19;;;;;;;24.43;4.30;;;11.90;99.90;;;;;;5014255;28;20553;-73
2022/12/24 10:16:14;;;;;;;20.87;5.63;;;12.00;99.90;;;;;;5020880;28;20881;-73
2022/12/24 10:19:11;;;;;;;31.80;5.87;;;12.00;99.90;;;;;;5013082;28;20511;-73
2022/12/24 10:22:06;;;;;;;22.70;5.07;;;12.10;99.90;;;;;;5005630;28;20449;-72
2022/12/24 10:25:00;;;;;;;24.13;5.57;;;12.10;99.90;;;;;;5016763;28;20421;-73
2022/12/24 10:27:46;;;;;;;25.57;4.07;;;12.10;99.90;;;;;;5015254;28;20444;-73
2022/12/24 10:30:33;;;;;;;26.50;5.10;;;12.20;99.90;;;;;;5002464;28;20804;-73
2022/12/24 10:33:22;;;;;;;17.50;4.87;;;12.40;99.90;;;;;;5018816;28;20511;-72
2022/12/24 10:36:15;;;;;;;23.57;4.20;;;12.60;99.90;;;;;;5017781;28;20476;-73
2022/12/24 10:39:01;;;;;;;23.13;5.90;;;13.10;99.90;;;;;;5009810;28;20616;-73
2022/12/24 10:41:49;;;;;;;35.87;6.20;;;13.70;99.90;;;;;;5008856;28;20818;-73
2022/12/24 10:44:35;;;;;;;17.90;5.10;;;14.00;99.90;;;;;;5019299;28;20475;-73
2022/12/24 10:47:22;;;;;;;30.00;5.90;;;14.10;99.90;;;;;;5016156;28;20940;-73
2022/12/24 10:50:18;;;;;;;22.27;4.77;;;14.10;99.90;;;;;;5002157;28;20453;-72
2022/12/24 10:53:17;;;;;;;16.40;4.50;;;14.30;99.90;;;;;;5017712;28;20548;-72
2022/12/24 10:56:05;;;;;;;21.17;5.53;;;14.40;99.90;;;;;;5021862;28;21002;-73
2022/12/24 10:58:53;;;;;;;25.03;4.37;;;14.20;99.90;;;;;;5016911;28;20458;-73
2022/12/24 11:01:47;;;;;;;22.60;4.87;;;14.00;99.90;;;;;;5018570;28;20795;-73
2022/12/24 11:04:45;;;;;;;16.93;4.17;;;13.70;99.90;;;;;;5019636;28;20897;-73
2022/12/24 11:07:32;;;;;;;25.97;4.30;;;13.60;99.90;;;;;;5003618;28;20970;-74
2022/12/24 11:10:24;;;;;;;25.50;5.10;;;13.40;99.90;;;;;;5010220;28;20444;-73
2022/12/24 11:13:25;;;;;;;18.80;3.90;;;13.30;99.90;;;;;;5015344;28;20436;-73
2022/12/24 11:16:17;;;;;;;25.17;4.60;;;13.20;99.90;;;;;;5009672;28;20544;-73
2022/12/24 11:19:05;;;;;;;30.40;5.50;;;13.20;99.90;;;;;;5006831;28;20831;-73
2022/12/24 11:21:59;;;;;;;20.63;4.63;;;13.20;99.90;;;;;;5014695;28;20505;-73
2022/12/24 11:24:46;;;;;;;27.87;6.07;;;13.10;99.90;;;;;;5014360;28;20417;-73
2022/12/24 11:27:40;;;;;;;28.23;4.67;;;13.10;99.90;;;;;;5017208;28;20866;-74
2022/12/24 11:30:30;;;;;;;26.17;5.50;;;13.10;99.90;;;;;;5013195;28;20821;-73
2022/12/24 11:33:20;;;;;;;18.33;4.50;;;13.00;99.90;;;;;;5014542;28;20799;-73
2022/12/24 11:36:12;;;;;;;20.03;4.57;;;13.00;99.90;;;;;;5013203;28;20498;-73
2022/12/24 11:38:59;;;;;;;19.50;4.37;;;12.90;99.90;;;;;;5015666;28;20601;-73
2022/12/24 11:41:44;;;;;;;41.87;6.00;;;12.80;99.90;;;;;;5019380;28;20440;-73
2022/12/24 11:44:31;;;;;;;19.17;4.80;;;12.70;99.90;;;;;;5017523;28;20521;-73
2022/12/24 11:47:17;;;;;;;30.03;7.27;;;12.70;99.90;;;;;;5015000;28;20450;-73
2022/12/24 11:50:30;;;;;;;17.77;5.37;;;12.70;99.90;;;;;;5007342;28;20453;-73
2022/12/24 11:53:20;;;;;;;21.17;5.30;;;12.80;99.90;;;;;;5002221;28;20958;-72
2022/12/24 11:56:15;;;;;;;32.67;6.40;;;12.70;99.90;;;;;;5011600;28;21010;-73
2022/12/24 11:59:09;;;;;;;20.73;5.93;;;12.70;99.90;;;;;;5005192;28;20444;-74
2022/12/24 12:01:59;;;;;;;32.03;6.80;;;12.70;99.90;;;;;;5004342;28;20512;-74
2022/12/24 12:04:50;;;;;;;14.20;3.93;;;12.60;99.90;;;;;;5007887;28;20453;-73
2022/12/24 12:07:37;;;;;;;21.07;5.97;;;12.60;99.90;;;;;;5001908;28;20467;-74
2022/12/24 12:10:26;;;;;;;29.63;4.80;;;12.60;99.90;;;;;;5016876;28;20437;-73
2022/12/24 12:13:13;;;;;;;14.23;4.07;;;12.60;99.90;;;;;;4999300;28;20551;-73
2022/12/24 12:16:13;;;;;;;18.07;5.80;;;12.70;99.90;;;;;;5007848;28;20481;-73
2022/12/24 12:19:04;;;;;;;19.80;4.23;;;12.60;99.90;;;;;;5007690;28;21350;-73
2022/12/24 12:21:50;;;;;;;16.13;4.47;;;12.70;99.90;;;;;;5004853;28;20469;-73
2022/12/24 12:24:43;;;;;;;31.20;4.97;;;12.70;99.90;;;;;;4992322;28;20449;-73
2022/12/24 12:27:33;;;;;;;17.70;4.00;;;12.70;99.90;;;;;;4992001;28;20473;-73
2022/12/24 12:30:22;;;;;;;24.90;5.03;;;12.60;99.90;;;;;;4991723;28;20453;-73
2022/12/24 12:33:19;;;;;;;35.43;5.37;;;12.60;99.90;;;;;;5008223;28;20962;-73
2022/12/24 12:36:09;;;;;;;26.83;4.23;;;12.30;99.90;;;;;;5005287;28;20472;-73
2022/12/24 12:38:55;;;;;;;16.27;3.63;;;12.20;99.90;;;;;;4999668;28;20432;-72
2022/12/24 12:41:52;;;;;;;25.00;5.50;;;12.10;99.90;;;;;;5005877;28;20464;-72
2022/12/24 12:44:58;;;;;;;22.80;4.90;;;12.10;99.90;;;;;;4997865;28;20449;-73
2022/12/24 12:47:54;;;;;;;38.93;5.03;;;12.10;99.90;;;;;;5018174;28;20461;-74
2022/12/24 12:50:46;;;;;;;18.87;4.23;;;12.00;99.90;;;;;;5008465;28;20839;-73
2022/12/24 12:53:43;;;;;;;23.07;5.37;;;12.10;99.90;;;;;;5006060;28;21065;-72
2022/12/24 12:56:31;;;;;;;15.73;4.63;;;12.00;99.90;;;;;;5005061;28;20637;-73
2022/12/24 12:59:22;;;;;;;29.30;5.30;;;12.00;99.90;;;;;;5007139;28;20445;-73
2022/12/24 13:02:30;;;;;;;19.47;4.10;;;12.10;99.90;;;;;;5012785;28;20517;-72
2022/12/24 13:06:06;;;;;;;16.90;3.77;;;12.00;99.90;;;;;;5004380;28;20938;-72
2022/12/24 13:09:12;;;;;;;23.80;4.93;;;12.00;99.90;;;;;;4921214;28;20822;-73
2022/12/24 13:12:19;;;;;;;28.40;5.40;;;12.00;99.90;;;;;;5002645;28;20490;-73
2022/12/24 13:15:47;;;;;;;16.50;4.37;;;12.00;99.90;;;;;;5005857;28;20460;-74
2022/12/24 13:19:00;;;;;;;18.60;4.40;;;11.90;99.90;;;;;;5004484;28;20453;-74
2022/12/24 13:21:48;;;;;;;22.37;4.37;;;11.90;99.90;;;;;;5004628;28;20441;-72
2022/12/24 13:24:47;;;;;;;25.57;6.87;;;11.90;99.90;;;;;;5002302;28;20445;-75
2022/12/24 13:27:34;;;;;;;30.73;6.73;;;11.90;99.90;;;;;;5007408;28;20807;-72
2022/12/24 13:30:39;;;;;;;16.17;4.47;;;11.90;99.90;;;;;;5006244;28;20453;-72
2022/12/24 13:33:47;;;;;;;20.03;5.20;;;12.00;99.90;;;;;;4999443;28;20453;-72
2022/12/24 13:37:01;;;;;;;19.70;4.83;;;12.00;99.90;;;;;;5003719;28;20484;-73
2022/12/24 13:40:16;;;;;;;27.57;6.37;;;12.00;99.90;;;;;;5008716;28;20979;-72
2022/12/24 13:43:11;;;;;;;21.53;4.80;;;12.00;99.90;;;;;;4996650;28;21041;-73
2022/12/24 13:45:57;;;;;;;30.17;5.17;;;12.00;99.90;;;;;;5000662;28;20837;-73
2022/12/24 13:48:43;;;;;;;21.43;6.30;;;11.90;99.90;;;;;;5004544;28;20430;-72
2022/12/24 13:51:29;;;;;;;25.77;4.47;;;11.90;99.90;;;;;;4998594;28;20581;-72
2022/12/24 13:54:18;;;;;;;29.70;5.10;;;11.80;99.90;;;;;;4998222;28;20676;-73
2022/12/24 13:57:26;;;;;;;23.13;5.33;;;11.90;99.90;;;;;;5004967;28;20447;-74
2022/12/24 14:00:36;;;;;;;22.50;4.50;;;11.80;99.90;;;;;;5009737;28;20479;-74
2022/12/24 14:03:29;;;;;;;30.33;5.93;;;11.80;99.90;;;;;;5017627;28;20457;-74
2022/12/24 14:06:24;;;;;;;28.50;5.87;;;11.90;99.90;;;;;;5006154;28;20465;-73
2022/12/24 14:09:12;;;;;;;28.20;5.37;;;11.80;99.90;;;;;;5008373;28;20450;-74
2022/12/24 14:12:46;;;;;;;17.63;4.80;;;11.80;99.90;;;;;;5005312;28;20424;-75
2022/12/24 14:16:01;;;;;;;16.90;4.90;;;11.80;99.90;;;;;;5002658;28;20636;-74
2022/12/24 14:18:57;;;;;;;20.07;4.73;;;11.90;99.90;;;;;;4989591;28;20581;-74
2022/12/24 14:21:51;;;;;;;19.97;5.70;;;11.80;99.90;;;;;;5006373;28;21230;-74
2022/12/24 14:24:41;;;;;;;29.83;5.27;;;11.80;99.90;;;;;;5003508;28;20523;-75
2022/12/24 14:27:37;;;;;;;19.13;5.83;;;11.90;99.90;;;;;;5011562;28;20483;-74
2022/12/24 14:30:24;;;;;;;28.67;4.57;;;11.80;99.90;;;;;;4999807;28;20474;-74
2022/12/24 14:33:28;;;;;;;26.70;5.20;;;11.80;99.90;;;;;;5011954;28;20464;-74
2022/12/24 14:36:20;;;;;;;29.77;4.93;;;11.70;99.90;;;;;;5016967;28;21008;-73
2022/12/24 14:39:08;;;;;;;16.50;4.20;;;11.70;99.90;;;;;;5003542;28;20608;-74